createdAt,value
2023-05-20T00:01:38.205Z,8.68
2023-05-20T00:04:06.377Z,6.20
2023-05-20T00:06:35.013Z,5.20
2023-05-20T00:09:03.446Z,4.40
2023-05-20T00:11:31.370Z,4.72
2023-05-20T00:13:59.132Z,6.50
2023-05-20T00:16:27.138Z,4.80
2023-05-20T00:18:56.864Z,10.82
2023-05-20T00:21:24.740Z,4.72
2023-05-20T00:23:52.527Z,5.47
2023-05-20T00:26:21.450Z,3.83
2023-05-20T00:28:49.291Z,6.57
2023-05-20T00:31:17.192Z,5.47
2023-05-20T00:33:44.922Z,5.40
2023-05-20T00:36:14.098Z,3.78
2023-05-20T00:38:41.878Z,5.10
2023-05-20T00:41:09.623Z,6.25
2023-05-20T00:43:37.337Z,3.40
2023-05-20T00:46:05.600Z,4.45
2023-05-20T00:48:41.348Z,6.53
2023-05-20T00:51:09.346Z,5.90
2023-05-20T00:53:38.564Z,3.53
2023-05-20T00:56:07.488Z,4.57
2023-05-20T00:58:38.302Z,5.05
2023-05-20T01:01:06.418Z,5.93
2023-05-20T01:03:35.164Z,8.27
2023-05-20T01:06:03.668Z,5.72
2023-05-20T01:08:32.335Z,3.50
2023-05-20T01:11:05.648Z,4.97
2023-05-20T01:13:44.651Z,4.70
2023-05-20T01:16:16.143Z,7.15
2023-05-20T01:18:45.008Z,3.50
2023-05-20T01:21:14.885Z,4.13
2023-05-20T01:23:44.395Z,5.85
2023-05-20T01:26:13.873Z,4.28
2023-05-20T01:28:43.759Z,4.68
2023-05-20T01:31:17.197Z,10.27
2023-05-20T01:33:46.097Z,14.18
2023-05-20T01:36:14.860Z,4.53
2023-05-20T01:38:45.219Z,3.85
2023-05-20T01:41:13.901Z,5.78
2023-05-20T01:43:42.149Z,6.43
2023-05-20T01:46:09.913Z,3.10
2023-05-20T01:48:38.331Z,11.00
2023-05-20T01:51:06.270Z,9.20
2023-05-20T01:53:34.043Z,7.15
2023-05-20T01:56:03.174Z,5.15
2023-05-20T01:58:30.944Z,8.50
2023-05-20T02:00:58.728Z,4.57
2023-05-20T02:03:26.553Z,4.40
2023-05-20T02:05:54.486Z,7.70
2023-05-20T02:08:22.327Z,3.60
2023-05-20T02:10:50.209Z,4.07
2023-05-20T02:13:19.526Z,6.88
2023-05-20T02:15:47.334Z,7.95
2023-05-20T02:18:18.600Z,4.57
2023-05-20T02:20:46.627Z,6.53
2023-05-20T02:23:14.506Z,5.75
2023-05-20T02:25:42.367Z,6.20
2023-05-20T02:28:10.662Z,7.82
2023-05-20T02:30:40.038Z,7.00
2023-05-20T02:33:09.732Z,5.13
2023-05-20T02:35:37.890Z,6.22
2023-05-20T02:38:05.667Z,4.32
2023-05-20T02:40:33.503Z,4.40
2023-05-20T02:43:01.763Z,4.95
2023-05-20T02:45:30.004Z,5.28
2023-05-20T02:47:59.363Z,4.63
2023-05-20T02:50:27.240Z,4.45
2023-05-20T02:52:55.026Z,7.13
2023-05-20T02:55:23.802Z,4.55
2023-05-20T02:57:51.930Z,8.73
2023-05-20T03:00:19.814Z,6.10
2023-05-20T03:02:47.648Z,3.95
2023-05-20T03:05:16.902Z,6.10
2023-05-20T03:07:46.414Z,5.63
2023-05-20T03:10:14.276Z,4.18
2023-05-20T03:12:42.039Z,5.43
2023-05-20T03:15:10.805Z,4.97
2023-05-20T03:17:38.521Z,5.63
2023-05-20T03:20:07.521Z,5.03
2023-05-20T03:22:36.636Z,4.63
2023-05-20T03:25:05.468Z,10.95
2023-05-20T03:27:34.529Z,5.43
2023-05-20T03:30:02.404Z,7.95
2023-05-20T03:32:30.282Z,4.18
2023-05-20T03:34:58.271Z,6.78
2023-05-20T03:37:26.213Z,5.30
2023-05-20T03:39:55.405Z,14.35
2023-05-20T03:42:23.160Z,4.85
2023-05-20T03:44:51.014Z,8.00
2023-05-20T03:47:18.808Z,4.82
2023-05-20T03:49:46.799Z,11.75
2023-05-20T03:52:14.552Z,4.00
2023-05-20T03:54:42.351Z,6.80
2023-05-20T03:57:11.585Z,5.80
2023-05-20T03:59:39.463Z,8.75
2023-05-20T04:02:07.518Z,5.57
2023-05-20T04:04:35.253Z,4.00
2023-05-20T04:07:03.201Z,7.70
2023-05-20T04:09:31.282Z,7.50
2023-05-20T04:11:59.274Z,5.95
2023-05-20T04:14:28.699Z,4.25
2023-05-20T04:16:57.405Z,5.78
2023-05-20T04:19:28.509Z,5.35
2023-05-20T04:21:57.308Z,3.90
2023-05-20T04:24:25.682Z,4.82
2023-05-20T04:26:53.677Z,4.15
2023-05-20T04:29:21.880Z,4.25
2023-05-20T04:31:51.019Z,5.18
2023-05-20T04:34:20.371Z,4.78
2023-05-20T04:36:49.069Z,5.45
2023-05-20T04:39:18.939Z,7.25
2023-05-20T04:41:48.353Z,6.60
2023-05-20T04:44:16.180Z,6.43
2023-05-20T04:46:44.754Z,5.40
2023-05-20T04:49:13.938Z,4.20
2023-05-20T04:51:42.035Z,7.05
2023-05-20T04:54:10.021Z,5.75
2023-05-20T04:56:38.255Z,6.35
2023-05-20T04:59:05.998Z,5.07
2023-05-20T05:01:33.772Z,6.97
2023-05-20T05:04:01.555Z,5.65
2023-05-20T05:06:30.917Z,5.47
2023-05-20T05:08:58.999Z,8.13
2023-05-20T05:11:27.107Z,5.03
2023-05-20T05:13:56.358Z,6.38
2023-05-20T05:16:24.189Z,5.78
2023-05-20T05:18:52.145Z,5.68
2023-05-20T05:21:19.996Z,6.70
2023-05-20T05:23:49.210Z,5.85
2023-05-20T05:26:17.086Z,5.03
2023-05-20T05:28:44.887Z,6.65
2023-05-20T05:31:12.672Z,4.88
2023-05-20T05:33:40.722Z,5.03
2023-05-20T05:36:08.991Z,7.82
2023-05-20T05:38:37.049Z,6.00
2023-05-20T05:41:06.574Z,8.43
2023-05-20T05:43:34.614Z,4.63
2023-05-20T05:46:02.589Z,6.07
2023-05-20T05:48:30.857Z,5.50
2023-05-20T05:50:58.793Z,7.97
2023-05-20T05:53:26.804Z,5.22
2023-05-20T05:55:54.858Z,5.32
2023-05-20T05:58:24.334Z,6.10
2023-05-20T06:00:53.072Z,6.45
2023-05-20T06:03:21.228Z,5.40
2023-05-20T06:05:49.245Z,5.22
2023-05-20T06:08:17.291Z,7.80
2023-05-20T06:10:48.950Z,8.70
2023-05-20T06:13:17.022Z,4.70
2023-05-20T06:15:46.514Z,10.77
2023-05-20T06:18:14.558Z,7.82
2023-05-20T06:20:42.640Z,7.03
2023-05-20T06:23:10.570Z,4.18
2023-05-20T06:25:38.554Z,7.00
2023-05-20T06:28:06.530Z,5.13
2023-05-20T06:30:34.468Z,4.72
2023-05-20T06:33:03.776Z,6.38
2023-05-20T06:35:31.756Z,5.78
2023-05-20T06:38:01.218Z,5.78
2023-05-20T06:40:29.659Z,7.97
2023-05-20T06:42:57.548Z,11.07
2023-05-20T06:45:25.490Z,6.30
2023-05-20T06:47:54.557Z,8.85
2023-05-20T06:50:25.050Z,5.22
2023-05-20T06:52:52.986Z,9.23
2023-05-20T06:55:21.271Z,7.20
2023-05-20T06:57:49.182Z,13.10
2023-05-20T07:00:17.618Z,5.30
2023-05-20T07:02:46.269Z,5.95
2023-05-20T07:05:14.132Z,7.78
2023-05-20T07:07:43.290Z,6.43
2023-05-20T07:10:11.353Z,4.85
2023-05-20T07:12:39.197Z,9.13
2023-05-20T07:15:08.119Z,5.78
2023-05-20T07:17:36.238Z,7.60
2023-05-20T07:20:04.999Z,7.22
2023-05-20T07:22:32.892Z,9.60
2023-05-20T07:25:02.681Z,5.18
2023-05-20T07:27:30.635Z,8.35
2023-05-20T07:29:58.624Z,9.45
2023-05-20T07:32:26.777Z,6.22
2023-05-20T07:34:54.856Z,7.90
2023-05-20T07:37:22.776Z,8.40
2023-05-20T07:39:51.003Z,6.90
2023-05-20T07:42:20.760Z,8.15
2023-05-20T07:44:48.691Z,7.95
2023-05-20T07:47:16.665Z,7.90
2023-05-20T07:49:46.862Z,9.55
2023-05-20T07:52:14.807Z,6.60
2023-05-20T07:54:42.980Z,6.28
2023-05-20T07:57:10.850Z,6.22
2023-05-20T07:59:40.164Z,9.55
2023-05-20T08:02:08.294Z,6.30
2023-05-20T08:04:37.023Z,9.13
2023-05-20T08:07:05.123Z,7.47
2023-05-20T08:09:33.192Z,7.60
2023-05-20T08:12:01.286Z,7.32
2023-05-20T08:14:29.238Z,6.95
2023-05-20T08:16:58.532Z,8.98
2023-05-20T08:19:26.574Z,7.20
2023-05-20T08:21:54.671Z,7.32
2023-05-20T08:24:22.870Z,9.43
2023-05-20T08:26:50.798Z,12.55
2023-05-20T08:29:18.895Z,7.38
2023-05-20T08:31:46.979Z,8.90
2023-05-20T08:34:16.682Z,7.60
2023-05-20T08:36:45.265Z,5.57
2023-05-20T08:39:13.129Z,6.40
2023-05-20T08:41:41.101Z,7.18
2023-05-20T08:44:11.059Z,4.97
2023-05-20T08:46:40.472Z,8.20
2023-05-20T08:49:08.994Z,9.15
2023-05-20T08:51:39.350Z,6.43
2023-05-20T08:54:09.503Z,7.47
2023-05-20T08:56:39.380Z,8.38
2023-05-20T08:59:07.532Z,7.63
2023-05-20T09:01:41.447Z,7.35
2023-05-20T09:04:09.867Z,7.18
2023-05-20T09:06:46.962Z,8.57
2023-05-20T09:09:15.758Z,7.78
2023-05-20T09:11:44.431Z,6.25
2023-05-20T09:14:12.471Z,7.05
2023-05-20T09:16:41.620Z,11.90
2023-05-20T09:19:10.055Z,8.38
2023-05-20T09:21:39.135Z,9.32
2023-05-20T09:24:09.041Z,8.90
2023-05-20T09:26:37.834Z,9.20
2023-05-20T09:29:06.170Z,7.15
2023-05-20T09:31:35.765Z,6.93
2023-05-20T09:34:04.311Z,6.75
2023-05-20T09:36:35.768Z,6.70
2023-05-20T09:39:05.299Z,9.63
2023-05-20T09:41:38.424Z,5.88
2023-05-20T09:44:07.848Z,8.40
2023-05-20T09:46:37.641Z,8.27
2023-05-20T09:49:06.818Z,6.57
2023-05-20T09:51:35.891Z,5.90
2023-05-20T09:54:05.124Z,8.23
2023-05-20T09:56:36.854Z,8.60
2023-05-20T09:59:06.553Z,6.80
2023-05-20T10:01:34.473Z,6.53
2023-05-20T10:04:03.129Z,6.45
2023-05-20T10:06:49.618Z,10.65
2023-05-20T10:09:32.083Z,9.93
2023-05-20T10:12:11.781Z,9.25
2023-05-20T10:14:52.189Z,9.10
2023-05-20T10:17:26.609Z,7.47
2023-05-20T10:19:59.512Z,7.03
2023-05-20T10:22:31.677Z,8.88
2023-05-20T10:25:01.403Z,7.38
2023-05-20T10:27:30.677Z,7.53
2023-05-20T10:29:58.668Z,7.30
2023-05-20T10:32:27.988Z,9.18
2023-05-20T10:35:01.951Z,9.57
2023-05-20T10:37:31.510Z,6.75
2023-05-20T10:40:08.444Z,9.23
2023-05-20T10:42:37.656Z,5.60
2023-05-20T10:45:06.503Z,5.60
2023-05-20T10:47:34.814Z,7.97
2023-05-20T10:50:04.857Z,6.47
2023-05-20T10:52:35.197Z,7.85
2023-05-20T10:55:03.563Z,5.47
2023-05-20T10:57:32.202Z,6.28
2023-05-20T11:00:02.125Z,9.00
2023-05-20T11:02:30.794Z,6.60
2023-05-20T11:04:59.230Z,6.78
2023-05-20T11:07:28.852Z,6.25
2023-05-20T11:09:56.738Z,7.97
2023-05-20T11:12:25.408Z,8.40
2023-05-20T11:14:53.830Z,6.57
2023-05-20T11:17:23.184Z,7.13
2023-05-20T11:19:51.879Z,11.73
2023-05-20T11:22:19.802Z,10.30
2023-05-20T11:24:48.003Z,7.53
2023-05-20T11:27:15.798Z,8.68
2023-05-20T11:29:43.864Z,6.30
2023-05-20T11:32:11.780Z,7.03
2023-05-20T11:34:41.193Z,7.63
2023-05-20T11:37:09.903Z,10.23
2023-05-20T11:39:39.361Z,5.85
2023-05-20T11:42:07.353Z,6.22
2023-05-20T11:44:35.385Z,7.72
2023-05-20T11:47:04.358Z,9.13
2023-05-20T11:49:40.238Z,7.68
2023-05-20T11:52:12.126Z,6.13
2023-05-20T11:54:40.089Z,7.65
2023-05-20T11:57:07.942Z,7.10
2023-05-20T11:59:36.638Z,6.18
2023-05-20T12:02:04.507Z,8.23
2023-05-20T12:04:32.362Z,6.60
2023-05-20T12:07:00.197Z,6.13
2023-05-20T12:09:29.382Z,6.88
2023-05-20T12:11:57.314Z,6.53
2023-05-20T12:14:25.067Z,6.82
2023-05-20T12:16:53.777Z,6.95
2023-05-20T12:19:21.693Z,6.80
2023-05-20T12:21:49.588Z,8.27
2023-05-20T12:24:17.366Z,5.90
2023-05-20T12:26:46.526Z,6.50
2023-05-20T12:29:14.303Z,5.95
2023-05-20T12:31:42.907Z,7.68
2023-05-20T12:34:10.672Z,6.15
2023-05-20T12:36:39.004Z,6.07
2023-05-20T12:39:07.427Z,8.52
2023-05-20T12:41:35.255Z,7.00
2023-05-20T12:44:04.429Z,6.50
2023-05-20T12:46:32.453Z,6.55
2023-05-20T12:49:00.153Z,8.43
2023-05-20T12:51:27.944Z,10.90
2023-05-20T12:53:55.723Z,7.00
2023-05-20T12:56:24.837Z,6.90
2023-05-20T12:58:52.670Z,7.00
2023-05-20T13:01:21.865Z,7.40
2023-05-20T13:03:52.998Z,8.48
2023-05-20T13:06:20.883Z,8.30
2023-05-20T13:08:48.720Z,6.75
2023-05-20T13:11:16.460Z,8.40
2023-05-20T13:13:44.399Z,6.22
2023-05-20T13:16:12.272Z,7.35
2023-05-20T13:18:41.673Z,6.63
2023-05-20T13:21:09.454Z,8.70
2023-05-20T13:23:38.437Z,6.80
2023-05-20T13:26:06.577Z,6.82
2023-05-20T13:28:34.338Z,6.50
2023-05-20T13:31:03.353Z,9.18
2023-05-20T13:33:31.151Z,7.88
2023-05-20T13:36:00.318Z,6.93
2023-05-20T13:38:28.088Z,9.48
2023-05-20T13:40:59.232Z,8.48
2023-05-20T13:43:27.107Z,7.88
2023-05-20T13:45:54.921Z,9.48
2023-05-20T13:48:22.700Z,9.85
2023-05-20T13:50:53.589Z,9.95
2023-05-20T13:53:22.910Z,8.07
2023-05-20T13:55:51.227Z,6.78
2023-05-20T13:58:18.969Z,8.27
2023-05-20T14:00:47.154Z,8.40
2023-05-20T14:03:15.052Z,8.20
2023-05-20T14:05:43.374Z,11.23
2023-05-20T14:08:11.204Z,7.13
2023-05-20T14:10:40.412Z,6.97
2023-05-20T14:13:08.991Z,9.52
2023-05-20T14:15:36.920Z,8.35
2023-05-20T14:18:05.104Z,11.90
2023-05-20T14:20:33.260Z,7.95
2023-05-20T14:23:01.814Z,10.48
2023-05-20T14:25:29.586Z,9.10
2023-05-20T14:27:58.763Z,7.90
2023-05-20T14:30:26.721Z,7.78
2023-05-20T14:32:55.096Z,10.07
2023-05-20T14:35:22.917Z,8.00
2023-05-20T14:37:50.731Z,8.85
2023-05-20T14:40:18.940Z,11.25
2023-05-20T14:42:47.028Z,9.23
2023-05-20T14:45:16.302Z,9.68
2023-05-20T14:47:44.267Z,11.80
2023-05-20T14:50:12.331Z,8.35
2023-05-20T14:52:40.255Z,7.25
2023-05-20T14:55:08.704Z,8.05
2023-05-20T14:57:36.532Z,10.10
2023-05-20T15:00:05.512Z,9.50
2023-05-20T15:02:34.818Z,9.30
2023-05-20T15:05:02.781Z,9.65
2023-05-20T15:07:30.602Z,9.25
2023-05-20T15:09:58.472Z,9.45
2023-05-20T15:12:26.410Z,10.00
2023-05-20T15:14:55.794Z,8.38
2023-05-20T15:17:23.761Z,8.73
2023-05-20T15:19:53.111Z,9.55
2023-05-20T15:22:21.082Z,8.45
2023-05-20T15:24:49.057Z,10.68
2023-05-20T15:27:16.864Z,14.23
2023-05-20T15:29:44.863Z,11.40
2023-05-20T15:32:12.767Z,13.32
2023-05-20T15:34:40.740Z,9.90
2023-05-20T15:37:09.945Z,11.93
2023-05-20T15:39:39.334Z,8.98
2023-05-20T15:42:07.431Z,12.13
2023-05-20T15:44:36.072Z,10.75
2023-05-20T15:47:05.894Z,9.80
2023-05-20T15:49:34.036Z,10.25
2023-05-20T15:52:03.998Z,13.23
2023-05-20T15:54:33.705Z,10.70
2023-05-20T15:57:02.684Z,9.52
2023-05-20T15:59:30.553Z,12.05
2023-05-20T16:01:58.433Z,10.25
2023-05-20T16:04:26.207Z,9.75
2023-05-20T16:06:53.979Z,12.13
2023-05-20T16:09:22.137Z,12.27
2023-05-20T16:11:51.440Z,13.15
2023-05-20T16:14:19.251Z,10.73
2023-05-20T16:16:47.069Z,10.88
2023-05-20T16:19:14.977Z,11.10
2023-05-20T16:21:42.811Z,11.05
2023-05-20T16:24:10.642Z,10.70
2023-05-20T16:26:38.438Z,10.32
2023-05-20T16:29:07.622Z,11.80
2023-05-20T16:31:35.908Z,8.75
2023-05-20T16:34:04.875Z,12.30
2023-05-20T16:36:32.735Z,9.55
2023-05-20T16:39:00.612Z,10.40
2023-05-20T16:41:28.766Z,10.60
2023-05-20T16:43:56.631Z,12.82
2023-05-20T16:46:26.019Z,14.73
2023-05-20T16:48:53.909Z,15.77
2023-05-20T16:51:21.854Z,10.52
2023-05-20T16:53:49.671Z,9.70
2023-05-20T16:56:17.509Z,9.65
2023-05-20T16:58:45.507Z,10.30
2023-05-20T17:01:13.281Z,9.95
2023-05-20T17:03:42.520Z,10.45
2023-05-20T17:06:10.482Z,11.82
2023-05-20T17:08:39.122Z,11.27
2023-05-20T17:11:06.988Z,10.20
2023-05-20T17:13:37.319Z,14.38
2023-05-20T17:16:05.995Z,10.57
2023-05-20T17:18:34.867Z,10.13
2023-05-20T17:21:04.033Z,10.73
2023-05-20T17:23:31.819Z,9.50
2023-05-20T17:25:59.664Z,14.07
2023-05-20T17:28:27.532Z,18.95
2023-05-20T17:30:55.419Z,12.27
2023-05-20T17:33:23.451Z,11.07
2023-05-20T17:35:51.730Z,10.02
2023-05-20T17:38:22.279Z,12.45
2023-05-20T17:40:50.345Z,12.70
2023-05-20T17:43:18.156Z,14.02
2023-05-20T17:45:45.964Z,10.70
2023-05-20T17:48:13.837Z,11.27
2023-05-20T17:50:42.183Z,13.13
2023-05-20T17:53:10.080Z,12.80
2023-05-20T17:55:39.739Z,10.13
2023-05-20T17:58:08.353Z,12.63
2023-05-20T18:00:42.035Z,9.98
2023-05-20T18:03:10.402Z,11.00
2023-05-20T18:05:38.472Z,9.98
2023-05-20T18:08:06.681Z,11.18
2023-05-20T18:10:35.160Z,10.20
2023-05-20T18:13:04.738Z,14.80
2023-05-20T18:15:32.686Z,11.38
2023-05-20T18:18:01.557Z,11.15
2023-05-20T18:20:29.846Z,10.07
2023-05-20T18:22:58.665Z,12.50
2023-05-20T18:25:27.120Z,10.43
2023-05-20T18:27:55.165Z,10.70
2023-05-20T18:30:24.346Z,10.77
2023-05-20T18:32:53.293Z,12.77
2023-05-20T18:35:21.317Z,15.00
2023-05-20T18:37:49.580Z,10.93
2023-05-20T18:40:19.049Z,11.88
2023-05-20T18:42:47.205Z,13.60
2023-05-20T18:45:15.211Z,11.70
2023-05-20T18:47:45.122Z,10.68
2023-05-20T18:50:13.219Z,11.50
2023-05-20T18:52:41.211Z,10.02
2023-05-20T18:55:09.894Z,12.23
2023-05-20T18:57:38.810Z,13.85
2023-05-20T19:00:12.081Z,13.25
2023-05-20T19:02:40.629Z,11.98
2023-05-20T19:05:11.765Z,13.80
2023-05-20T19:07:39.932Z,11.45
2023-05-20T19:10:09.360Z,11.95
2023-05-20T19:12:37.230Z,12.40
2023-05-20T19:15:05.932Z,14.90
2023-05-20T19:17:33.873Z,12.70
2023-05-20T19:20:01.667Z,11.27
2023-05-20T19:22:30.893Z,12.30
2023-05-20T19:24:58.769Z,11.48
2023-05-20T19:27:26.657Z,12.07
2023-05-20T19:29:54.460Z,13.23
2023-05-20T19:32:22.447Z,13.00
2023-05-20T19:34:50.214Z,11.82
2023-05-20T19:37:18.130Z,12.23
2023-05-20T19:39:47.410Z,13.55
2023-05-20T19:42:15.300Z,12.65
2023-05-20T19:44:43.091Z,13.45
2023-05-20T19:47:10.850Z,11.88
2023-05-20T19:49:38.828Z,12.25
2023-05-20T19:52:07.609Z,15.65
2023-05-20T19:54:35.634Z,14.55
2023-05-20T19:57:05.074Z,13.10
2023-05-20T19:59:32.815Z,12.05
2023-05-20T20:02:03.001Z,17.50
2023-05-20T20:04:30.866Z,13.40
2023-05-20T20:06:58.664Z,15.40
2023-05-20T20:09:26.408Z,16.20
2023-05-20T20:11:54.295Z,16.60
2023-05-20T20:14:23.506Z,18.42
2023-05-20T20:16:51.274Z,14.70
2023-05-20T20:19:23.060Z,15.43
2023-05-20T20:21:53.290Z,14.88
2023-05-20T20:24:21.469Z,14.50
2023-05-20T20:26:49.376Z,20.88
2023-05-20T20:29:17.469Z,20.55
2023-05-20T20:31:47.104Z,18.63
2023-05-20T20:34:15.256Z,14.88
2023-05-20T20:36:44.986Z,16.67
2023-05-20T20:39:18.924Z,15.77
2023-05-20T20:41:47.497Z,16.73
2023-05-20T20:44:18.967Z,16.08
2023-05-20T20:46:51.198Z,14.02
2023-05-20T20:49:19.382Z,19.45
2023-05-20T20:51:47.675Z,20.33
2023-05-20T20:54:15.665Z,18.98
2023-05-20T20:56:45.595Z,15.65
2023-05-20T20:59:15.821Z,18.02
2023-05-20T21:01:44.982Z,17.20
2023-05-20T21:04:14.583Z,18.13
2023-05-20T21:06:46.186Z,16.27
2023-05-20T21:09:14.247Z,21.80
2023-05-20T21:11:42.932Z,16.13
2023-05-20T21:14:11.282Z,21.08
2023-05-20T21:16:39.462Z,19.75
2023-05-20T21:19:07.432Z,16.58
2023-05-20T21:21:36.659Z,19.95
2023-05-20T21:24:04.665Z,18.15
2023-05-20T21:26:32.465Z,18.65
2023-05-20T21:29:00.183Z,18.15
2023-05-20T21:31:28.113Z,16.08
2023-05-20T21:33:55.974Z,17.88
2023-05-20T21:36:23.821Z,19.02
2023-05-20T21:38:52.964Z,15.15
2023-05-20T21:41:21.493Z,16.73
2023-05-20T21:43:49.295Z,18.40
2023-05-20T21:46:17.235Z,19.77
2023-05-20T21:48:45.094Z,19.38
2023-05-20T21:51:12.949Z,18.58
2023-05-20T21:53:40.865Z,19.83
2023-05-20T21:56:10.098Z,21.80
2023-05-20T21:58:41.260Z,21.85
2023-05-20T22:01:10.462Z,19.60
2023-05-20T22:03:39.878Z,21.85
2023-05-20T22:06:08.078Z,18.58
2023-05-20T22:08:35.879Z,19.65
2023-05-20T22:11:07.398Z,20.45
2023-05-20T22:13:41.393Z,17.90
2023-05-20T22:16:10.114Z,20.23
2023-05-20T22:18:38.478Z,17.65
2023-05-20T22:21:06.646Z,18.02
2023-05-20T22:23:34.458Z,18.27
2023-05-20T22:26:02.163Z,18.13
2023-05-20T22:28:30.539Z,19.13
2023-05-20T22:30:59.806Z,16.17
2023-05-20T22:33:27.953Z,21.45
2023-05-20T22:35:56.333Z,18.27
2023-05-20T22:38:25.046Z,18.83
2023-05-20T22:40:52.868Z,18.52
2023-05-20T22:43:23.221Z,21.75
2023-05-20T22:45:51.080Z,24.05
2023-05-20T22:48:22.901Z,20.42
2023-05-20T22:50:50.898Z,20.83
2023-05-20T22:53:18.832Z,18.73
2023-05-20T22:55:46.662Z,19.75
2023-05-20T22:58:14.706Z,20.77
2023-05-20T23:00:44.469Z,19.73
2023-05-20T23:03:13.225Z,19.48
2023-05-20T23:05:42.528Z,19.10
2023-05-20T23:08:10.593Z,20.25
2023-05-20T23:10:38.716Z,18.52
2023-05-20T23:13:06.642Z,22.05
2023-05-20T23:15:35.823Z,24.00
2023-05-20T23:18:03.904Z,20.23
2023-05-20T23:20:31.733Z,19.58
2023-05-20T23:23:08.248Z,21.77
2023-05-20T23:25:39.178Z,19.85
2023-05-20T23:28:07.380Z,19.98
2023-05-20T23:30:35.860Z,19.45
2023-05-20T23:33:04.157Z,18.92
2023-05-20T23:35:32.010Z,18.70
2023-05-20T23:38:01.271Z,19.63
2023-05-20T23:40:29.109Z,21.92
2023-05-20T23:42:56.892Z,20.20
2023-05-20T23:45:24.694Z,20.05
2023-05-20T23:47:53.853Z,23.77
2023-05-20T23:50:21.917Z,22.45
2023-05-20T23:52:49.812Z,22.45
2023-05-20T23:55:19.435Z,21.02
2023-05-20T23:57:47.271Z,22.48
